Time;durP1;ratioP1;P1;durP2;ratioP2;P2;SDS_P1;SDS_P2;PMS_P1;PMS_P2;Temp;Humidity;BMP_temperature;BMP_pressure;BME280_temperature;BME280_humidity;BME280_pressure;Samples;Min_cycle;Max_cycle;Signal;HPM_P1;HPM_P2
2022/12/12 00:02:04;;;;;;;;;;;;;;;;;;5056767;28;7399;-64
2022/12/12 00:04:30;;;;;;;;;;;;;;;;;;5056839;28;7341;-65
2022/12/12 00:06:56;;;;;;;;;;;;;;;;;;5057360;28;7406;-64
2022/12/12 00:09:21;;;;;;;;;;;;;;;;;;5056626;28;7041;-64
2022/12/12 00:11:47;;;;;;;;;;;;;;;;;;5056317;28;7213;-65
2022/12/12 00:14:12;;;;;;;;;;;;;;;;;;5056632;28;7541;-64
2022/12/12 00:16:39;;;;;;;;;;;;;;;;;;5056484;28;7390;-64
2022/12/12 00:19:05;;;;;;;;;;;;;;;;;;5056174;28;7151;-65
2022/12/12 00:21:31;;;;;;;;;;;;;;;;;;5056435;28;7453;-65
2022/12/12 00:26:54;;;;;;;;;;;;;;;;;;5056512;28;6976;-64
2022/12/12 00:29:22;;;;;;;;;;;;;;;;;;5055757;28;6819;-65
2022/12/12 00:31:47;;;;;;;;;;;;;;;;;;5038888;28;7425;-65
2022/12/12 00:34:13;;;;;;;;;;;;;;;;;;5055987;28;7269;-64
2022/12/12 00:36:39;;;;;;;;;;;;;;;;;;5056197;28;7173;-64
2022/12/12 00:39:04;;;;;;;;;;;;;;;;;;5055825;28;6952;-64
2022/12/12 00:41:42;;;;;;;;;;;;;;;;;;5055683;28;6939;-64
2022/12/12 00:44:08;;;;;;;;;;;;;;;;;;5055731;28;8368;-65
2022/12/12 00:46:34;;;;;;;;;;;;;;;;;;5056006;28;7479;-64
2022/12/12 00:49:16;;;;;;;;;;;;;;;;;;5056852;28;7085;-73
2022/12/12 00:52:00;;;;;;;;;;;;;;;;;;5056076;28;7306;-73
2022/12/12 00:54:26;;;;;;;;;;;;;;;;;;5055827;28;7183;-73
2022/12/12 00:56:52;;;;;;;;;;;;;;;;;;5056638;28;7153;-73
2022/12/12 00:59:18;;;;;;;;;;;;;;;;;;5056310;28;6920;-74
2022/12/12 01:01:45;;;;;;;;;;;;;;;;;;5055692;28;7509;-73
2022/12/12 01:04:10;;;;;;;;;;;;;;;;;;5055705;28;7125;-73
2022/12/12 01:06:45;;;;;;;;;;;;;;;;;;5055524;28;7121;-73
2022/12/12 01:09:11;;;;;;;;;;;;;;;;;;5055498;28;7073;-73
2022/12/12 01:11:37;;;;;;;;;;;;;;;;;;5055575;28;6913;-73
2022/12/12 01:14:03;;;;;;;;;;;;;;;;;;5055297;28;7338;-73
2022/12/12 01:16:30;;;;;;;;;;;;;;;;;;5055437;28;7116;-73
2022/12/12 01:18:56;;;;;;;;;;;;;;;;;;5055570;28;6947;-74
2022/12/12 01:21:23;;;;;;;;;;;;;;;;;;5037541;28;8903;-73
2022/12/12 01:23:49;;;;;;;;;;;;;;;;;;5054926;28;6801;-72
2022/12/12 01:26:20;;;;;;;;;;;;;;;;;;5055360;28;7060;-73
2022/12/12 01:31:48;;;;;;;;;;;;;;;;;;5054694;28;6956;-73
2022/12/12 01:34:23;;;;;;;;;;;;;;;;;;5055863;28;7175;-73
2022/12/12 01:36:49;;;;;;;;;;;;;;;;;;5055057;28;6900;-73
2022/12/12 01:39:14;;;;;;;;;;;;;;;;;;5054460;28;6903;-73
2022/12/12 01:41:41;;;;;;;;;;;;;;;;;;5054607;28;7253;-73
2022/12/12 01:44:29;;;;;;;;;;;;;;;;;;5054680;28;7591;-73
2022/12/12 01:46:55;;;;;;;;;;;;;;;;;;5043323;28;7327;-73
2022/12/12 01:49:27;;;;;;;;;;;;;;;;;;5054979;28;7097;-73
2022/12/12 01:51:59;;;;;;;;;;;;;;;;;;5054580;28;7153;-73
2022/12/12 01:54:49;;;;;;;;;;;;;;;;;;5054948;28;7001;-73
2022/12/12 01:57:24;;;;;;;;;;;;;;;;;;5037205;28;8394;-73
2022/12/12 02:00:03;;;;;;;;;;;;;;;;;;5055200;28;7141;-73
2022/12/12 02:02:29;;;;;;;;;;;;;;;;;;5054641;28;6946;-73
2022/12/12 02:04:59;;;;;;;;;;;;;;;;;;5054718;28;7181;-72
2022/12/12 02:07:24;;;;;;;;;;;;;;;;;;5054732;28;7450;-73
2022/12/12 02:09:50;;;;;;;;;;;;;;;;;;5054525;28;7154;-73
2022/12/12 02:12:16;;;;;;;;;;;;;;;;;;5054685;28;7146;-73
2022/12/12 02:14:45;;;;;;;;;;;;;;;;;;5054496;28;7111;-73
2022/12/12 02:17:13;;;;;;;;;;;;;;;;;;5054728;28;7083;-73
2022/12/12 02:20:14;;;;;;;;;;;;;;;;;;5054545;28;7166;-73
2022/12/12 02:22:52;;;;;;;;;;;;;;;;;;5054502;28;7063;-73
2022/12/12 02:28:23;;;;;;;;;;;;;;;;;;5054953;28;6981;-64
2022/12/12 02:31:07;;;;;;;;;;;;;;;;;;5055115;28;7490;-64
2022/12/12 02:36:42;;;;;;;;;;;;;;;;;;5054207;28;6681;-64
2022/12/12 02:42:06;;;;;;;;;;;;;;;;;;5055588;28;8608;-64
2022/12/12 02:44:38;;;;;;;;;;;;;;;;;;5054404;28;7066;-64
2022/12/12 02:50:30;;;;;;;;;;;;;;;;;;4993147;28;6781;-64
2022/12/12 02:52:57;;;;;;;;;;;;;;;;;;4977259;28;7169;-64
2022/12/12 02:55:57;;;;;;;;;;;;;;;;;;4977453;28;7081;-64
2022/12/12 02:58:23;;;;;;;;;;;;;;;;;;4978153;28;7154;-64
2022/12/12 03:01:09;;;;;;;;;;;;;;;;;;4977153;28;7156;-64
2022/12/12 03:15:43;;;;;;;;;;;;;;;;;;4976901;28;7055;-73
2022/12/12 03:21:10;;;;;;;;;;;;;;;;;;4977560;28;6917;-73
2022/12/12 03:23:42;;;;;;;;;;;;;;;;;;4977094;28;7143;-73
2022/12/12 03:26:13;;;;;;;;;;;;;;;;;;4987288;28;6972;-73
2022/12/12 03:28:46;;;;;;;;;;;;;;;;;;5037178;28;7213;-73
2022/12/12 03:31:15;;;;;;;;;;;;;;;;;;5037601;28;6926;-73
2022/12/12 03:33:56;;;;;;;;;;;;;;;;;;5037411;28;7172;-73
2022/12/12 03:36:48;;;;;;;;;;;;;;;;;;5037832;28;7139;-73
2022/12/12 03:45:34;;;;;;;;;;;;;;;;;;5037564;28;7068;-73
2022/12/12 03:48:12;;;;;;;;;;;;;;;;;;5036921;28;6927;-73
2022/12/12 03:50:43;;;;;;;;;;;;;;;;;;5037869;28;6939;-73
2022/12/12 03:53:17;;;;;;;;;;;;;;;;;;5057000;28;7539;-73
2022/12/12 03:59:14;;;;;;;;;;;;;;;;;;5056738;28;6673;-73
2022/12/12 04:04:51;;;;;;;;;;;;;;;;;;5057024;28;6921;-73
2022/12/12 04:07:34;;;;;;;;;;;;;;;;;;5056568;28;7148;-73
2022/12/12 04:15:47;;;;;;;;;;;;;;;;;;5056333;28;6673;-73
2022/12/12 04:18:19;;;;;;;;;;;;;;;;;;5056696;28;7181;-73
2022/12/12 04:23:47;;;;;;;;;;;;;;;;;;5056261;28;6689;-64
2022/12/12 04:29:15;;;;;;;;;;;;;;;;;;5056178;28;6760;-64
2022/12/12 04:31:47;;;;;;;;;;;;;;;;;;5056156;28;7429;-65
2022/12/12 04:40:11;;;;;;;;;;;;;;;;;;5056112;28;6760;-64
2022/12/12 04:42:56;;;;;;;;;;;;;;;;;;5056077;28;7241;-64
2022/12/12 04:45:27;;;;;;;;;;;;;;;;;;5055986;28;7173;-72
2022/12/12 04:48:03;;;;;;;;;;;;;;;;;;5056089;28;7090;-73
2022/12/12 04:50:32;;;;;;;;;;;;;;;;;;5055820;28;7129;-65
2022/12/12 04:55:56;;;;;;;;;;;;;;;;;;5056531;28;6955;-64
2022/12/12 04:58:36;;;;;;;;;;;;;;;;;;5055735;28;7289;-64
2022/12/12 05:01:13;;;;;;;;;;;;;;;;;;5055599;28;6979;-64
2022/12/12 05:06:43;;;;;;;;;;;;;;;;;;5055915;28;7018;-65
2022/12/12 05:09:10;;;;;;;;;;;;;;;;;;5055266;28;7099;-65
2022/12/12 05:11:58;;;;;;;;;;;;;;;;;;5055618;28;6989;-65
2022/12/12 05:14:24;;;;;;;;;;;;;;;;;;5056263;28;7298;-65
2022/12/12 05:17:06;;;;;;;;;;;;;;;;;;5055106;28;7162;-65
2022/12/12 05:19:32;;;;;;;;;;;;;;;;;;5055326;28;7043;-65
2022/12/12 05:21:58;;;;;;;;;;;;;;;;;;5055403;28;6924;-65
2022/12/12 05:24:29;;;;;;;;;;;;;;;;;;5055496;28;7156;-64
2022/12/12 05:27:11;;;;;;;;;;;;;;;;;;5056302;28;7060;-64
2022/12/12 05:29:37;;;;;;;;;;;;;;;;;;5055155;28;8767;-64
2022/12/12 05:32:03;;;;;;;;;;;;;;;;;;5054201;28;7262;-64
2022/12/12 05:34:29;;;;;;;;;;;;;;;;;;5037263;28;8401;-69
2022/12/12 05:37:25;;;;;;;;;;;;;;;;;;5054410;28;8432;-67
2022/12/12 05:39:50;;;;;;;;;;;;;;;;;;5055017;28;7809;-64
2022/12/12 05:42:16;;;;;;;;;;;;;;;;;;5054962;28;7396;-65
2022/12/12 05:44:43;;;;;;;;;;;;;;;;;;5037872;28;8599;-64
2022/12/12 05:47:08;;;;;;;;;;;;;;;;;;5054913;28;7021;-64
2022/12/12 05:49:34;;;;;;;;;;;;;;;;;;5024841;28;6844;-64
2022/12/12 05:52:00;;;;;;;;;;;;;;;;;;5027196;28;7226;-64
2022/12/12 05:54:27;;;;;;;;;;;;;;;;;;5034718;28;7204;-64
2022/12/12 05:56:52;;;;;;;;;;;;;;;;;;5034706;28;7165;-64
2022/12/12 05:59:18;;;;;;;;;;;;;;;;;;5034415;28;7116;-64
2022/12/12 06:01:43;;;;;;;;;;;;;;;;;;5034879;28;7415;-63
2022/12/12 06:04:09;;;;;;;;;;;;;;;;;;5035872;28;7215;-63
2022/12/12 06:06:37;;;;;;;;;;;;;;;;;;5034411;28;7878;-66
2022/12/12 06:09:03;;;;;;;;;;;;;;;;;;5034463;28;7152;-64
2022/12/12 06:11:28;;;;;;;;;;;;;;;;;;5033849;28;7161;-66
2022/12/12 06:13:54;;;;;;;;;;;;;;;;;;5034602;28;7369;-64
2022/12/12 06:16:19;;;;;;;;;;;;;;;;;;5034520;28;7370;-64
2022/12/12 06:18:53;;;;;;;;;;;;;;;;;;5034041;28;7125;-64
2022/12/12 06:21:19;;;;;;;;;;;;;;;;;;5035691;28;7329;-64
2022/12/12 06:23:53;;;;;;;;;;;;;;;;;;5054606;28;7135;-63
2022/12/12 06:26:19;;;;;;;;;;;;;;;;;;5056611;28;7402;-64
2022/12/12 06:28:55;;;;;;;;;;;;;;;;;;5058335;28;7026;-64
2022/12/12 06:31:21;;;;;;;;;;;;;;;;;;5058377;28;6957;-64
2022/12/12 06:33:49;;;;;;;;;;;;;;;;;;5058351;28;7056;-64
2022/12/12 06:36:22;;;;;;;;;;;;;;;;;;5058169;28;6936;-71
2022/12/12 06:39:19;;;;;;;;;;;;;;;;;;5058357;28;7084;-72
2022/12/12 06:41:45;;;;;;;;;;;;;;;;;;5058238;28;7102;-72
2022/12/12 06:47:03;;;;;;;;;;;;;;;;;;5058307;28;7026;-72
2022/12/12 15:20:35;;;;;;;;;;;;;;;;;;5051031;28;6967;-71
2022/12/12 15:23:06;;;;;;;;;;;;;;;;;;4992642;28;6980;-71
2022/12/12 15:25:34;;;;;;;;;;;;;;;;;;4993071;28;7434;-71
2022/12/12 15:28:01;;;;;;;;;;;;;;;;;;4992925;28;7228;-71
2022/12/12 15:33:40;;;;;;;;;;;;;;;;;;4993147;28;6937;-71
2022/12/12 15:36:18;;;;;;;;;;;;;;;;;;4992491;28;7154;-71
2022/12/12 15:38:43;;;;;;;;;;;;;;;;;;4992663;28;7058;-71
2022/12/12 15:41:10;;;;;;;;;;;;;;;;;;4991957;28;8466;-71
2022/12/12 15:43:38;;;;;;;;;;;;;;;;;;4992623;28;6945;-71
2022/12/12 15:52:17;;;;;;;;;;;;;;;;;;4992240;28;6928;-71
2022/12/12 15:54:46;;;;;;;;;;;;;;;;;;4992965;28;7097;-71
2022/12/12 15:57:24;;;;;;;;;;;;;;;;;;4992393;28;6927;-71
2022/12/12 16:09:25;;;;;;;;;;;;;;;;;;4992381;28;6797;-71
2022/12/12 16:11:58;;;;;;;;;;;;;;;;;;4992070;28;6957;-71
2022/12/12 16:14:35;;;;;;;;;;;;;;;;;;4992028;28;6996;-71
2022/12/12 16:17:05;;;;;;;;;;;;;;;;;;4992145;28;7134;-71
2022/12/12 16:19:52;;;;;;;;;;;;;;;;;;4987263;28;7177;-70
2022/12/12 16:22:20;;;;;;;;;;;;;;;;;;4992754;28;7260;-71
2022/12/12 16:28:21;;;;;;;;;;;;;;;;;;4991622;28;6935;-71
2022/12/12 16:30:55;;;;;;;;;;;;;;;;;;4984838;28;7064;-71
2022/12/12 16:33:38;;;;;;;;;;;;;;;;;;4978801;28;6869;-71
2022/12/12 16:36:06;;;;;;;;;;;;;;;;;;4978731;28;6803;-71
2022/12/12 16:38:33;;;;;;;;;;;;;;;;;;4978677;28;7047;-71
2022/12/12 16:41:00;;;;;;;;;;;;;;;;;;4978661;28;7244;-71
2022/12/12 16:43:32;;;;;;;;;;;;;;;;;;4978286;28;7016;-71
2022/12/12 16:45:58;;;;;;;;;;;;;;;;;;4978470;28;6904;-71
2022/12/12 16:48:25;;;;;;;;;;;;;;;;;;4978612;28;6836;-71
2022/12/12 16:51:14;;;;;;;;;;;;;;;;;;4978418;28;7187;-71
2022/12/12 16:53:40;;;;;;;;;;;;;;;;;;4978146;28;7191;-71
2022/12/12 16:56:14;;;;;;;;;;;;;;;;;;4978420;28;7198;-71
2022/12/12 16:58:39;;;;;;;;;;;;;;;;;;4978287;28;7185;-70
2022/12/12 17:01:12;;;;;;;;;;;;;;;;;;4978196;28;7133;-71
2022/12/12 17:03:38;;;;;;;;;;;;;;;;;;4978359;28;7156;-71
2022/12/12 17:06:04;;;;;;;;;;;;;;;;;;4978240;28;7187;-70
2022/12/12 17:08:29;;;;;;;;;;;;;;;;;;4978201;28;6929;-70
2022/12/12 17:10:55;;;;;;;;;;;;;;;;;;4978032;28;6912;-70
2022/12/12 17:13:24;;;;;;;;;;;;;;;;;;4977970;28;7180;-70
2022/12/12 17:15:52;;;;;;;;;;;;;;;;;;4978031;28;7176;-71
2022/12/12 17:18:34;;;;;;;;;;;;;;;;;;4977592;28;6885;-71
2022/12/12 17:20:59;;;;;;;;;;;;;;;;;;4977560;28;7255;-71
2022/12/12 17:23:25;;;;;;;;;;;;;;;;;;4978773;28;7010;-71
2022/12/12 17:25:51;;;;;;;;;;;;;;;;;;4977889;28;7183;-71
2022/12/12 17:28:18;;;;;;;;;;;;;;;;;;4977614;28;7048;-70
2022/12/12 17:30:45;;;;;;;;;;;;;;;;;;4977659;28;6944;-71
2022/12/12 17:33:18;;;;;;;;;;;;;;;;;;4977801;28;7110;-70
2022/12/12 17:35:44;;;;;;;;;;;;;;;;;;4977760;28;6955;-71
2022/12/12 17:38:10;;;;;;;;;;;;;;;;;;4977644;28;7281;-70
2022/12/12 17:40:42;;;;;;;;;;;;;;;;;;4977432;28;7161;-71
2022/12/12 17:43:08;;;;;;;;;;;;;;;;;;4976423;28;7212;-71
2022/12/12 17:45:33;;;;;;;;;;;;;;;;;;4977911;28;7346;-71
2022/12/12 17:47:59;;;;;;;;;;;;;;;;;;4977436;28;7193;-71
2022/12/12 17:50:24;;;;;;;;;;;;;;;;;;4977057;28;7311;-71
2022/12/12 17:52:50;;;;;;;;;;;;;;;;;;4977298;28;7467;-71
2022/12/12 17:55:15;;;;;;;;;;;;;;;;;;4977293;28;7351;-71
2022/12/12 17:57:41;;;;;;;;;;;;;;;;;;4975812;28;7184;-71
2022/12/12 18:00:27;;;;;;;;;;;;;;;;;;4976999;28;7110;-71
2022/12/12 18:02:52;;;;;;;;;;;;;;;;;;4977050;28;7475;-71
2022/12/12 18:05:20;;;;;;;;;;;;;;;;;;4977634;28;7117;-71
2022/12/12 18:07:45;;;;;;;;;;;;;;;;;;4977092;28;7266;-71
2022/12/12 18:10:14;;;;;;;;;;;;;;;;;;4976721;28;6960;-71
2022/12/12 18:12:50;;;;;;;;;;;;;;;;;;4976907;28;7071;-63
2022/12/12 18:15:16;;;;;;;;;;;;;;;;;;4976930;28;6815;-62
2022/12/12 18:20:38;;;;;;;;;;;;;;;;;;4976348;28;6947;-63
2022/12/12 18:23:37;;;;;;;;;;;;;;;;;;4976783;28;7164;-63
2022/12/12 18:26:08;;;;;;;;;;;;;;;;;;4976291;28;8682;-63
2022/12/12 18:28:34;;;;;;;;;;;;;;;;;;4976613;28;7189;-63
2022/12/12 18:31:00;;;;;;;;;;;;;;;;;;4977182;28;7194;-63
2022/12/12 18:33:26;;;;;;;;;;;;;;;;;;4976560;28;7151;-63
2022/12/12 18:35:58;;;;;;;;;;;;;;;;;;4976209;28;7168;-63
2022/12/12 18:38:24;;;;;;;;;;;;;;;;;;4977001;28;7391;-63
2022/12/12 18:41:11;;;;;;;;;;;;;;;;;;4976774;28;7144;-63
2022/12/12 18:43:37;;;;;;;;;;;;;;;;;;4976613;28;6973;-63
2022/12/12 18:46:23;;;;;;;;;;;;;;;;;;4976940;28;6941;-63
2022/12/12 18:48:49;;;;;;;;;;;;;;;;;;4976481;28;7042;-63
2022/12/12 18:51:31;;;;;;;;;;;;;;;;;;4976165;28;7618;-63
2022/12/12 18:54:02;;;;;;;;;;;;;;;;;;4976236;28;6888;-63
2022/12/12 18:56:34;;;;;;;;;;;;;;;;;;4976820;28;7235;-63
2022/12/12 18:59:02;;;;;;;;;;;;;;;;;;4976103;28;6858;-63
2022/12/12 19:01:51;;;;;;;;;;;;;;;;;;4975832;28;8034;-63
2022/12/12 19:04:17;;;;;;;;;;;;;;;;;;4976194;28;7354;-63
2022/12/12 19:07:00;;;;;;;;;;;;;;;;;;4975881;28;6988;-63
2022/12/12 19:09:25;;;;;;;;;;;;;;;;;;4975898;28;7059;-63
2022/12/12 19:11:51;;;;;;;;;;;;;;;;;;4975997;28;6994;-63
2022/12/12 19:17:12;;;;;;;;;;;;;;;;;;4977094;28;6943;-63
2022/12/12 19:19:38;;;;;;;;;;;;;;;;;;4969934;28;7364;-63
2022/12/12 19:22:04;;;;;;;;;;;;;;;;;;4975933;28;6874;-63
2022/12/12 19:24:44;;;;;;;;;;;;;;;;;;4975682;28;7091;-63
2022/12/12 19:27:21;;;;;;;;;;;;;;;;;;4976004;28;7252;-63
2022/12/12 19:30:03;;;;;;;;;;;;;;;;;;4975801;28;7263;-63
2022/12/12 19:32:29;;;;;;;;;;;;;;;;;;4975908;28;7122;-63
2022/12/12 19:34:57;;;;;;;;;;;;;;;;;;4975851;28;7083;-63
2022/12/12 19:37:23;;;;;;;;;;;;;;;;;;4975877;28;7328;-63
2022/12/12 19:39:50;;;;;;;;;;;;;;;;;;4975718;28;7018;-63
2022/12/12 19:42:16;;;;;;;;;;;;;;;;;;4975834;28;7425;-63
2022/12/12 19:44:59;;;;;;;;;;;;;;;;;;4975729;28;7056;-63
2022/12/12 19:47:26;;;;;;;;;;;;;;;;;;4975853;28;7156;-63
2022/12/12 19:49:51;;;;;;;;;;;;;;;;;;4975663;28;7404;-63
2022/12/12 19:52:25;;;;;;;;;;;;;;;;;;4975699;28;7028;-63
2022/12/12 19:54:51;;;;;;;;;;;;;;;;;;4975588;28;7427;-63
2022/12/12 19:57:16;;;;;;;;;;;;;;;;;;4975390;28;7036;-63
2022/12/12 19:59:56;;;;;;;;;;;;;;;;;;4975655;28;6812;-63
2022/12/12 20:02:22;;;;;;;;;;;;;;;;;;4975626;28;7146;-63
2022/12/12 20:04:59;;;;;;;;;;;;;;;;;;4975192;28;6927;-63
2022/12/12 20:07:25;;;;;;;;;;;;;;;;;;4979047;28;7430;-63
2022/12/12 20:09:51;;;;;;;;;;;;;;;;;;4979119;28;7375;-63
2022/12/12 20:12:30;;;;;;;;;;;;;;;;;;4979065;28;7388;-63
2022/12/12 20:14:55;;;;;;;;;;;;;;;;;;4979157;28;7014;-63
2022/12/12 20:17:21;;;;;;;;;;;;;;;;;;4979005;28;7175;-63
2022/12/12 20:19:49;;;;;;;;;;;;;;;;;;4974004;28;7142;-71
2022/12/12 20:22:15;;;;;;;;;;;;;;;;;;4979232;28;7167;-71
2022/12/12 20:24:46;;;;;;;;;;;;;;;;;;4979053;28;7100;-71
2022/12/12 20:27:14;;;;;;;;;;;;;;;;;;4978922;28;7276;-71
2022/12/12 20:32:43;;;;;;;;;;;;;;;;;;4978578;28;6928;-71
2022/12/12 20:35:08;;;;;;;;;;;;;;;;;;4978777;28;7158;-71
2022/12/12 20:38:00;;;;;;;;;;;;;;;;;;4978142;28;8457;-71
2022/12/12 20:40:25;;;;;;;;;;;;;;;;;;5009813;28;8660;-71
2022/12/12 20:43:11;;;;;;;;;;;;;;;;;;4978621;28;7086;-71
2022/12/12 20:45:37;;;;;;;;;;;;;;;;;;4978494;28;7156;-71
2022/12/12 20:48:03;;;;;;;;;;;;;;;;;;4978547;28;6912;-71
2022/12/12 20:50:28;;;;;;;;;;;;;;;;;;4978292;28;7121;-71
2022/12/12 20:52:54;;;;;;;;;;;;;;;;;;4978106;28;7913;-71
2022/12/12 20:55:20;;;;;;;;;;;;;;;;;;4978345;28;7228;-71
2022/12/12 20:57:45;;;;;;;;;;;;;;;;;;4978518;28;7086;-63
2022/12/12 21:00:11;;;;;;;;;;;;;;;;;;4977917;28;7235;-63
2022/12/12 21:02:38;;;;;;;;;;;;;;;;;;4978306;28;7111;-63
2022/12/12 21:05:07;;;;;;;;;;;;;;;;;;4978288;28;7140;-63
2022/12/12 21:07:33;;;;;;;;;;;;;;;;;;4978282;28;7060;-63
2022/12/12 21:09:59;;;;;;;;;;;;;;;;;;4978783;28;7460;-63
2022/12/12 21:12:24;;;;;;;;;;;;;;;;;;4978177;28;7338;-63
2022/12/12 21:14:52;;;;;;;;;;;;;;;;;;4978077;28;7139;-63
2022/12/12 21:17:18;;;;;;;;;;;;;;;;;;4977584;28;7215;-63
2022/12/12 21:20:19;;;;;;;;;;;;;;;;;;4977857;28;7373;-63
2022/12/12 21:22:45;;;;;;;;;;;;;;;;;;4958738;28;7583;-63
2022/12/12 21:25:31;;;;;;;;;;;;;;;;;;4958568;28;6922;-63
2022/12/12 21:27:57;;;;;;;;;;;;;;;;;;4958564;28;6941;-63
2022/12/12 21:30:41;;;;;;;;;;;;;;;;;;4958669;28;7102;-63
2022/12/12 21:33:08;;;;;;;;;;;;;;;;;;4958373;28;7201;-63
2022/12/12 21:35:34;;;;;;;;;;;;;;;;;;4957157;28;8691;-63
2022/12/12 21:38:00;;;;;;;;;;;;;;;;;;4958311;28;7391;-63
2022/12/12 21:40:26;;;;;;;;;;;;;;;;;;4958286;28;7152;-63
2022/12/12 21:42:55;;;;;;;;;;;;;;;;;;4958213;28;6836;-63
2022/12/12 21:45:20;;;;;;;;;;;;;;;;;;4958231;28;7088;-63
2022/12/12 21:47:46;;;;;;;;;;;;;;;;;;4958166;28;7107;-63
2022/12/12 21:50:27;;;;;;;;;;;;;;;;;;4958015;28;7076;-63
2022/12/12 21:59:16;;;;;;;;;;;;;;;;;;4958107;28;6924;-71
2022/12/12 22:01:42;;;;;;;;;;;;;;;;;;4957843;28;6968;-71
2022/12/12 22:04:27;;;;;;;;;;;;;;;;;;4957904;28;7195;-71
2022/12/12 22:06:55;;;;;;;;;;;;;;;;;;4957793;28;7119;-71
2022/12/12 22:09:27;;;;;;;;;;;;;;;;;;4957744;28;7052;-71
2022/12/12 22:11:53;;;;;;;;;;;;;;;;;;4957502;28;7350;-71
2022/12/12 22:14:25;;;;;;;;;;;;;;;;;;4957671;28;7206;-71
2022/12/12 22:16:51;;;;;;;;;;;;;;;;;;4957691;28;7221;-71
2022/12/12 22:19:22;;;;;;;;;;;;;;;;;;4957682;28;7347;-71
2022/12/12 22:21:48;;;;;;;;;;;;;;;;;;4969283;28;6955;-71
2022/12/12 22:24:15;;;;;;;;;;;;;;;;;;4976703;28;7002;-71
2022/12/12 22:26:42;;;;;;;;;;;;;;;;;;4976304;28;8094;-71
2022/12/12 22:29:13;;;;;;;;;;;;;;;;;;4976105;28;7214;-71
2022/12/12 22:34:57;;;;;;;;;;;;;;;;;;4976554;28;6916;-71
2022/12/12 22:37:23;;;;;;;;;;;;;;;;;;4976530;28;7004;-71
2022/12/12 22:39:48;;;;;;;;;;;;;;;;;;4976458;28;7115;-72
2022/12/12 22:42:14;;;;;;;;;;;;;;;;;;4976347;28;7214;-71
2022/12/12 22:44:59;;;;;;;;;;;;;;;;;;4976438;28;6908;-72
2022/12/12 22:47:25;;;;;;;;;;;;;;;;;;4976316;28;6983;-63
2022/12/12 22:49:51;;;;;;;;;;;;;;;;;;4974752;28;8784;-63
2022/12/12 22:52:16;;;;;;;;;;;;;;;;;;4976325;28;6989;-63
2022/12/12 22:54:42;;;;;;;;;;;;;;;;;;4976250;28;7379;-63
2022/12/12 22:57:07;;;;;;;;;;;;;;;;;;4976331;28;6844;-63
2022/12/12 22:59:35;;;;;;;;;;;;;;;;;;4976256;28;7493;-63
2022/12/12 23:02:01;;;;;;;;;;;;;;;;;;4976255;28;7138;-64
2022/12/12 23:04:26;;;;;;;;;;;;;;;;;;4976177;28;6966;-63
2022/12/12 23:09:55;;;;;;;;;;;;;;;;;;4975872;28;6685;-63
2022/12/12 23:12:43;;;;;;;;;;;;;;;;;;4976028;28;6995;-63
2022/12/12 23:15:09;;;;;;;;;;;;;;;;;;4976077;28;7195;-63
2022/12/12 23:17:40;;;;;;;;;;;;;;;;;;4976126;28;7420;-63
2022/12/12 23:20:06;;;;;;;;;;;;;;;;;;4975893;28;7057;-63
2022/12/12 23:22:33;;;;;;;;;;;;;;;;;;4969312;28;7076;-63
2022/12/12 23:25:00;;;;;;;;;;;;;;;;;;4975993;28;7167;-63
2022/12/12 23:27:26;;;;;;;;;;;;;;;;;;4975613;28;7856;-63
2022/12/12 23:29:54;;;;;;;;;;;;;;;;;;4975857;28;7084;-63
2022/12/12 23:32:19;;;;;;;;;;;;;;;;;;4974938;28;8447;-63
2022/12/12 23:34:51;;;;;;;;;;;;;;;;;;4975820;28;6973;-63
2022/12/12 23:37:34;;;;;;;;;;;;;;;;;;4975884;28;7246;-63
2022/12/12 23:40:00;;;;;;;;;;;;;;;;;;4975710;28;7014;-63
2022/12/12 23:45:45;;;;;;;;;;;;;;;;;;4979541;28;6681;-63
2022/12/12 23:48:10;;;;;;;;;;;;;;;;;;4979660;28;7286;-63
2022/12/12 23:50:36;;;;;;;;;;;;;;;;;;4979555;28;7410;-63
2022/12/12 23:53:01;;;;;;;;;;;;;;;;;;4979403;28;7053;-63
2022/12/12 23:55:55;;;;;;;;;;;;;;;;;;4979628;28;7442;-63
2022/12/12 23:58:20;;;;;;;;;;;;;;;;;;4979024;28;8143;-63
